sensor_id;sensor_type;location;lat;lon;timestamp;pressure;altitude;pressure_sealevel;temperature;humidity
62978;BME280;49073;42.352;23.808;2024-01-11T00:01:48;95576.78;;;-5.45;80.53
62978;BME280;49073;42.352;23.808;2024-01-11T00:04:49;95571.78;;;-5.34;80.67
62978;BME280;49073;42.352;23.808;2024-01-11T00:07:49;95569.44;;;-5.36;79.84
62978;BME280;49073;42.352;23.808;2024-01-11T00:10:50;95575.22;;;-5.46;79.64
62978;BME280;49073;42.352;23.808;2024-01-11T00:13:50;95561.31;;;-5.40;79.83
62978;BME280;49073;42.352;23.808;2024-01-11T00:16:51;95566.97;;;-5.43;79.44
62978;BME280;49073;42.352;23.808;2024-01-11T00:19:53;95563.59;;;-5.67;81.01
62978;BME280;49073;42.352;23.808;2024-01-11T00:22:54;95556.16;;;-5.63;80.51
62978;BME280;49073;42.352;23.808;2024-01-11T00:25:54;95546.25;;;-5.66;80.53
62978;BME280;49073;42.352;23.808;2024-01-11T00:28:55;95547.56;;;-5.64;81.53
62978;BME280;49073;42.352;23.808;2024-01-11T00:31:55;95542.94;;;-5.62;81.11
62978;BME280;49073;42.352;23.808;2024-01-11T00:34:56;95542.28;;;-5.69;81.38
62978;BME280;49073;42.352;23.808;2024-01-11T00:37:57;95541.91;;;-5.61;80.66
62978;BME280;49073;42.352;23.808;2024-01-11T00:40:58;95530.66;;;-5.78;80.91
62978;BME280;49073;42.352;23.808;2024-01-11T00:43:59;95527.97;;;-5.95;81.61
62978;BME280;49073;42.352;23.808;2024-01-11T00:47:00;95529.91;;;-5.91;80.98
62978;BME280;49073;42.352;23.808;2024-01-11T00:50:01;95526.06;;;-5.88;81.33
62978;BME280;49073;42.352;23.808;2024-01-11T00:53:02;95531.25;;;-6.00;82.77
62978;BME280;49073;42.352;23.808;2024-01-11T00:56:03;95526.06;;;-5.88;82.25
62978;BME280;49073;42.352;23.808;2024-01-11T00:59:04;95521.53;;;-5.81;82.22
62978;BME280;49073;42.352;23.808;2024-01-11T01:02:05;95516.47;;;-5.76;81.88
62978;BME280;49073;42.352;23.808;2024-01-11T01:05:07;95524.56;;;-5.72;80.09
62978;BME280;49073;42.352;23.808;2024-01-11T01:08:08;95518.72;;;-5.79;80.60
62978;BME280;49073;42.352;23.808;2024-01-11T01:11:08;95514.09;;;-5.89;81.05
62978;BME280;49073;42.352;23.808;2024-01-11T01:14:09;95501.00;;;-5.82;81.10
62978;BME280;49073;42.352;23.808;2024-01-11T01:17:10;95499.25;;;-5.65;80.30
62978;BME280;49073;42.352;23.808;2024-01-11T01:20:10;95493.09;;;-5.88;80.69
62978;BME280;49073;42.352;23.808;2024-01-11T01:23:11;95498.19;;;-5.81;81.03
62978;BME280;49073;42.352;23.808;2024-01-11T01:26:12;95501.44;;;-5.74;80.05
62978;BME280;49073;42.352;23.808;2024-01-11T01:29:13;95500.53;;;-5.67;79.29
62978;BME280;49073;42.352;23.808;2024-01-11T01:32:15;95509.91;;;-5.90;80.31
62978;BME280;49073;42.352;23.808;2024-01-11T01:35:16;95499.31;;;-5.77;79.64
62978;BME280;49073;42.352;23.808;2024-01-11T01:38:19;95495.78;;;-5.71;79.59
62978;BME280;49073;42.352;23.808;2024-01-11T01:41:20;95497.06;;;-5.85;80.31
62978;BME280;49073;42.352;23.808;2024-01-11T01:44:20;95488.13;;;-5.89;80.45
62978;BME280;49073;42.352;23.808;2024-01-11T01:47:21;95487.69;;;-5.86;79.75
62978;BME280;49073;42.352;23.808;2024-01-11T01:50:21;95487.34;;;-5.90;79.25
62978;BME280;49073;42.352;23.808;2024-01-11T01:53:23;95490.72;;;-5.77;78.22
62978;BME280;49073;42.352;23.808;2024-01-11T01:56:25;95482.91;;;-6.06;79.67
62978;BME280;49073;42.352;23.808;2024-01-11T01:59:26;95475.34;;;-6.08;80.95
62978;BME280;49073;42.352;23.808;2024-01-11T02:02:28;95471.50;;;-6.05;80.73
62978;BME280;49073;42.352;23.808;2024-01-11T02:05:30;95471.81;;;-6.02;81.08
62978;BME280;49073;42.352;23.808;2024-01-11T02:08:32;95465.63;;;-6.01;80.93
62978;BME280;49073;42.352;23.808;2024-01-11T02:11:32;95472.28;;;-6.05;80.42
62978;BME280;49073;42.352;23.808;2024-01-11T02:14:34;95465.69;;;-5.95;80.25
62978;BME280;49073;42.352;23.808;2024-01-11T02:17:35;95466.88;;;-6.03;79.73
62978;BME280;49073;42.352;23.808;2024-01-11T02:20:36;95458.06;;;-6.02;79.49
62978;BME280;49073;42.352;23.808;2024-01-11T02:23:43;95452.88;;;-6.02;79.14
62978;BME280;49073;42.352;23.808;2024-01-11T02:27:02;95454.00;;;-6.10;78.96
62978;BME280;49073;42.352;23.808;2024-01-11T02:30:04;95457.06;;;-6.13;79.76
62978;BME280;49073;42.352;23.808;2024-01-11T02:33:05;95451.00;;;-6.31;80.08
62978;BME280;49073;42.352;23.808;2024-01-11T02:36:06;95452.56;;;-6.30;81.29
62978;BME280;49073;42.352;23.808;2024-01-11T02:39:07;95448.38;;;-6.19;80.73
62978;BME280;49073;42.352;23.808;2024-01-11T02:42:07;95449.53;;;-6.15;80.68
62978;BME280;49073;42.352;23.808;2024-01-11T02:45:10;95444.56;;;-6.16;80.48
62978;BME280;49073;42.352;23.808;2024-01-11T02:48:11;95439.72;;;-6.12;81.25
62978;BME280;49073;42.352;23.808;2024-01-11T02:51:11;95444.78;;;-6.30;81.74
62978;BME280;49073;42.352;23.808;2024-01-11T02:54:12;95441.84;;;-6.21;80.91
62978;BME280;49073;42.352;23.808;2024-01-11T02:57:13;95438.47;;;-6.22;80.76
62978;BME280;49073;42.352;23.808;2024-01-11T03:00:14;95433.84;;;-6.32;81.73
62978;BME280;49073;42.352;23.808;2024-01-11T03:03:14;95436.34;;;-6.37;82.55
62978;BME280;49073;42.352;23.808;2024-01-11T03:06:15;95439.47;;;-6.23;82.17
62978;BME280;49073;42.352;23.808;2024-01-11T03:09:18;95440.16;;;-6.16;82.04
62978;BME280;49073;42.352;23.808;2024-01-11T03:12:18;95432.38;;;-6.28;81.50
62978;BME280;49073;42.352;23.808;2024-01-11T03:15:19;95428.00;;;-6.39;82.15
62978;BME280;49073;42.352;23.808;2024-01-11T03:18:19;95426.28;;;-6.33;81.77
62978;BME280;49073;42.352;23.808;2024-01-11T03:21:20;95423.94;;;-6.35;82.34
62978;BME280;49073;42.352;23.808;2024-01-11T03:24:21;95420.19;;;-6.15;81.57
62978;BME280;49073;42.352;23.808;2024-01-11T03:27:22;95418.63;;;-6.16;81.07
62978;BME280;49073;42.352;23.808;2024-01-11T03:30:22;95416.25;;;-6.30;80.58
62978;BME280;49073;42.352;23.808;2024-01-11T03:33:24;95413.88;;;-6.31;81.09
62978;BME280;49073;42.352;23.808;2024-01-11T03:36:24;95418.31;;;-6.32;80.10
62978;BME280;49073;42.352;23.808;2024-01-11T03:39:25;95415.03;;;-6.51;81.46
62978;BME280;49073;42.352;23.808;2024-01-11T03:42:26;95410.41;;;-6.49;81.47
62978;BME280;49073;42.352;23.808;2024-01-11T03:45:27;95405.13;;;-6.54;82.43
62978;BME280;49073;42.352;23.808;2024-01-11T03:48:27;95406.59;;;-6.46;82.14
62978;BME280;49073;42.352;23.808;2024-01-11T03:51:28;95406.13;;;-6.43;81.90
62978;BME280;49073;42.352;23.808;2024-01-11T03:54:29;95403.88;;;-6.51;81.73
62978;BME280;49073;42.352;23.808;2024-01-11T03:57:32;95394.19;;;-6.68;80.63
62978;BME280;49073;42.352;23.808;2024-01-11T04:00:35;95402.75;;;-6.55;81.26
62978;BME280;49073;42.352;23.808;2024-01-11T04:03:35;95402.88;;;-6.62;80.86
62978;BME280;49073;42.352;23.808;2024-01-11T04:06:36;95396.22;;;-6.58;82.05
62978;BME280;49073;42.352;23.808;2024-01-11T04:09:38;95391.13;;;-6.65;82.12
62978;BME280;49073;42.352;23.808;2024-01-11T04:12:38;95390.91;;;-6.51;81.62
62978;BME280;49073;42.352;23.808;2024-01-11T04:15:39;95392.38;;;-6.55;81.85
62978;BME280;49073;42.352;23.808;2024-01-11T04:18:39;95390.03;;;-6.57;81.33
62978;BME280;49073;42.352;23.808;2024-01-11T04:21:40;95394.75;;;-6.54;80.67
62978;BME280;49073;42.352;23.808;2024-01-11T04:24:43;95389.44;;;-6.71;80.88
62978;BME280;49073;42.352;23.808;2024-01-11T04:27:43;95391.94;;;-6.76;81.33
62978;BME280;49073;42.352;23.808;2024-01-11T04:30:44;95391.03;;;-6.82;82.29
62978;BME280;49073;42.352;23.808;2024-01-11T04:33:45;95395.06;;;-6.86;82.87
62978;BME280;49073;42.352;23.808;2024-01-11T04:36:46;95384.06;;;-6.69;83.75
62978;BME280;49073;42.352;23.808;2024-01-11T04:39:47;95392.03;;;-6.71;83.34
62978;BME280;49073;42.352;23.808;2024-01-11T04:42:48;95395.66;;;-6.72;82.00
62978;BME280;49073;42.352;23.808;2024-01-11T04:45:48;95393.59;;;-6.82;83.07
62978;BME280;49073;42.352;23.808;2024-01-11T04:48:49;95392.63;;;-6.57;82.60
62978;BME280;49073;42.352;23.808;2024-01-11T04:51:51;95383.16;;;-6.75;82.28
62978;BME280;49073;42.352;23.808;2024-01-11T04:54:52;95389.44;;;-6.83;82.20
62978;BME280;49073;42.352;23.808;2024-01-11T04:57:52;95388.31;;;-6.87;82.88
62978;BME280;49073;42.352;23.808;2024-01-11T05:00:54;95384.59;;;-6.91;82.17
62978;BME280;49073;42.352;23.808;2024-01-11T05:03:54;95389.31;;;-6.88;83.05
62978;BME280;49073;42.352;23.808;2024-01-11T05:06:55;95385.41;;;-6.91;83.39
62978;BME280;49073;42.352;23.808;2024-01-11T05:09:55;95381.34;;;-6.75;82.38
62978;BME280;49073;42.352;23.808;2024-01-11T05:12:56;95378.19;;;-6.77;82.61
62978;BME280;49073;42.352;23.808;2024-01-11T05:15:56;95382.69;;;-6.84;81.63
62978;BME280;49073;42.352;23.808;2024-01-11T05:18:58;95377.50;;;-6.84;81.17
62978;BME280;49073;42.352;23.808;2024-01-11T05:21:58;95380.00;;;-7.01;81.68
62978;BME280;49073;42.352;23.808;2024-01-11T05:24:59;95371.41;;;-7.02;82.76
62978;BME280;49073;42.352;23.808;2024-01-11T05:28:03;95368.50;;;-6.81;82.29
62978;BME280;49073;42.352;23.808;2024-01-11T05:31:14;95367.16;;;-6.96;81.99
62978;BME280;49073;42.352;23.808;2024-01-11T05:34:16;95368.50;;;-6.93;82.11
62978;BME280;49073;42.352;23.808;2024-01-11T05:37:17;95364.56;;;-6.96;82.04
62978;BME280;49073;42.352;23.808;2024-01-11T05:40:17;95351.94;;;-6.92;82.48
62978;BME280;49073;42.352;23.808;2024-01-11T05:43:18;95353.16;;;-6.83;81.64
62978;BME280;49073;42.352;23.808;2024-01-11T05:46:19;95360.28;;;-6.78;82.14
62978;BME280;49073;42.352;23.808;2024-01-11T05:49:19;95362.66;;;-6.89;81.64
62978;BME280;49073;42.352;23.808;2024-01-11T05:52:20;95359.50;;;-6.91;81.86
62978;BME280;49073;42.352;23.808;2024-01-11T05:55:22;95346.44;;;-6.96;82.11
62978;BME280;49073;42.352;23.808;2024-01-11T05:58:23;95354.75;;;-6.82;82.28
62978;BME280;49073;42.352;23.808;2024-01-11T06:01:23;95351.59;;;-6.72;82.25
62978;BME280;49073;42.352;23.808;2024-01-11T06:04:24;95350.78;;;-6.61;81.51
62978;BME280;49073;42.352;23.808;2024-01-11T06:07:25;95348.78;;;-6.70;81.40
62978;BME280;49073;42.352;23.808;2024-01-11T06:10:26;95343.91;;;-6.55;81.50
62978;BME280;49073;42.352;23.808;2024-01-11T06:13:27;95341.19;;;-6.48;81.38
62978;BME280;49073;42.352;23.808;2024-01-11T06:16:29;95340.41;;;-6.49;81.37
62978;BME280;49073;42.352;23.808;2024-01-11T06:19:29;95344.38;;;-6.58;82.12
62978;BME280;49073;42.352;23.808;2024-01-11T06:22:32;95338.56;;;-6.36;82.70
62978;BME280;49073;42.352;23.808;2024-01-11T06:25:32;95341.88;;;-6.41;82.59
62978;BME280;49073;42.352;23.808;2024-01-11T06:28:34;95336.31;;;-6.33;82.80
62978;BME280;49073;42.352;23.808;2024-01-11T06:31:34;95345.22;;;-6.29;84.08
62978;BME280;49073;42.352;23.808;2024-01-11T06:34:35;95348.31;;;-6.03;83.54
62978;BME280;49073;42.352;23.808;2024-01-11T06:37:38;95338.84;;;-5.80;84.97
62978;BME280;49073;42.352;23.808;2024-01-11T06:40:39;95338.94;;;-5.75;86.01
62978;BME280;49073;42.352;23.808;2024-01-11T06:43:39;95341.53;;;-5.75;86.14
62978;BME280;49073;42.352;23.808;2024-01-11T06:46:40;95334.78;;;-5.59;86.72
62978;BME280;49073;42.352;23.808;2024-01-11T06:49:41;95338.03;;;-5.51;86.73
62978;BME280;49073;42.352;23.808;2024-01-11T06:52:42;95334.72;;;-5.30;86.11
62978;BME280;49073;42.352;23.808;2024-01-11T06:55:43;95330.88;;;-5.27;85.25
62978;BME280;49073;42.352;23.808;2024-01-11T06:58:44;95318.06;;;-5.17;86.04
62978;BME280;49073;42.352;23.808;2024-01-11T07:01:45;95316.38;;;-5.06;86.26
62978;BME280;49073;42.352;23.808;2024-01-11T07:04:47;95324.88;;;-4.93;86.03
62978;BME280;49073;42.352;23.808;2024-01-11T07:07:47;95314.31;;;-4.87;86.56
62978;BME280;49073;42.352;23.808;2024-01-11T07:10:48;95313.28;;;-4.86;87.08
62978;BME280;49073;42.352;23.808;2024-01-11T07:13:49;95314.69;;;-4.78;87.66
62978;BME280;49073;42.352;23.808;2024-01-11T07:16:50;95309.34;;;-4.71;87.94
62978;BME280;49073;42.352;23.808;2024-01-11T07:19:51;95316.56;;;-4.73;87.75
62978;BME280;49073;42.352;23.808;2024-01-11T07:22:52;95318.59;;;-4.58;87.41
62978;BME280;49073;42.352;23.808;2024-01-11T07:25:52;95319.69;;;-4.54;87.45
62978;BME280;49073;42.352;23.808;2024-01-11T07:28:54;95323.25;;;-4.38;87.22
62978;BME280;49073;42.352;23.808;2024-01-11T07:31:57;95307.28;;;-4.47;86.10
62978;BME280;49073;42.352;23.808;2024-01-11T07:34:58;95313.16;;;-4.34;86.32
62978;BME280;49073;42.352;23.808;2024-01-11T07:37:58;95306.31;;;-4.18;87.02
62978;BME280;49073;42.352;23.808;2024-01-11T07:40:59;95302.00;;;-4.07;87.04
62978;BME280;49073;42.352;23.808;2024-01-11T07:43:59;95302.91;;;-3.97;86.26
62978;BME280;49073;42.352;23.808;2024-01-11T07:47:00;95295.25;;;-3.81;85.73
62978;BME280;49073;42.352;23.808;2024-01-11T07:50:01;95294.06;;;-3.68;84.24
62978;BME280;49073;42.352;23.808;2024-01-11T07:53:01;95302.34;;;-3.76;84.26
62978;BME280;49073;42.352;23.808;2024-01-11T07:56:02;95306.09;;;-3.62;84.40
62978;BME280;49073;42.352;23.808;2024-01-11T07:59:03;95306.56;;;-3.70;85.45
62978;BME280;49073;42.352;23.808;2024-01-11T08:02:04;95302.47;;;-3.61;85.36
62978;BME280;49073;42.352;23.808;2024-01-11T08:05:06;95302.09;;;-3.42;83.96
62978;BME280;49073;42.352;23.808;2024-01-11T08:22:22;95278.69;;;-2.51;81.29
62978;BME280;49073;42.352;23.808;2024-01-11T08:25:23;95278.44;;;-2.44;80.77
62978;BME280;49073;42.352;23.808;2024-01-11T08:28:24;95277.03;;;-2.04;81.73
62978;BME280;49073;42.352;23.808;2024-01-11T08:31:24;95274.72;;;-1.74;80.80
62978;BME280;49073;42.352;23.808;2024-01-11T08:34:25;95272.63;;;-1.67;79.04
62978;BME280;49073;42.352;23.808;2024-01-11T08:37:26;95270.56;;;-1.60;77.44
62978;BME280;49073;42.352;23.808;2024-01-11T08:40:27;95267.41;;;-1.52;76.23
62978;BME280;49073;42.352;23.808;2024-01-11T08:43:27;95259.59;;;-1.36;75.88
62978;BME280;49073;42.352;23.808;2024-01-11T08:46:28;95255.66;;;-1.18;73.79
62978;BME280;49073;42.352;23.808;2024-01-11T08:49:31;95260.06;;;-1.03;74.25
62978;BME280;49073;42.352;23.808;2024-01-11T08:52:32;95249.41;;;-1.17;73.98
62978;BME280;49073;42.352;23.808;2024-01-11T08:55:33;95247.78;;;-0.92;72.16
62978;BME280;49073;42.352;23.808;2024-01-11T08:58:34;95235.28;;;-0.40;73.48
62978;BME280;49073;42.352;23.808;2024-01-11T09:01:36;95242.53;;;-0.16;71.34
62978;BME280;49073;42.352;23.808;2024-01-11T09:04:38;95230.63;;;0.07;71.34
62978;BME280;49073;42.352;23.808;2024-01-11T09:07:39;95221.34;;;0.20;70.51
62978;BME280;49073;42.352;23.808;2024-01-11T09:10:40;95218.75;;;0.15;69.69
62978;BME280;49073;42.352;23.808;2024-01-11T09:13:41;95205.78;;;0.34;70.35
62978;BME280;49073;42.352;23.808;2024-01-11T09:16:42;95216.66;;;0.17;71.15
62978;BME280;49073;42.352;23.808;2024-01-11T09:19:44;95205.75;;;0.39;69.48
62978;BME280;49073;42.352;23.808;2024-01-11T09:22:45;95204.94;;;0.44;69.93
62978;BME280;49073;42.352;23.808;2024-01-11T09:25:46;95196.00;;;0.75;69.57
62978;BME280;49073;42.352;23.808;2024-01-11T09:28:46;95198.63;;;0.45;70.00
62978;BME280;49073;42.352;23.808;2024-01-11T09:31:48;95186.13;;;0.66;70.43
62978;BME280;49073;42.352;23.808;2024-01-11T09:34:49;95182.03;;;0.79;69.83
62978;BME280;49073;42.352;23.808;2024-01-11T09:37:51;95170.44;;;0.85;69.20
62978;BME280;49073;42.352;23.808;2024-01-11T09:41:12;95163.50;;;1.00;70.57
62978;BME280;49073;42.352;23.808;2024-01-11T09:44:12;95153.53;;;1.21;69.66
62978;BME280;49073;42.352;23.808;2024-01-11T09:47:16;95150.91;;;1.21;70.21
62978;BME280;49073;42.352;23.808;2024-01-11T09:50:19;95152.97;;;1.24;68.62
62978;BME280;49073;42.352;23.808;2024-01-11T09:53:22;95140.34;;;1.45;68.67
62978;BME280;49073;42.352;23.808;2024-01-11T09:56:25;95135.19;;;1.59;69.43
62978;BME280;49073;42.352;23.808;2024-01-11T09:59:28;95131.53;;;1.36;69.17
62978;BME280;49073;42.352;23.808;2024-01-11T10:02:28;95129.84;;;1.65;68.73
62978;BME280;49073;42.352;23.808;2024-01-11T10:05:29;95122.53;;;1.42;68.33
62978;BME280;49073;42.352;23.808;2024-01-11T10:08:31;95118.84;;;1.63;67.61
62978;BME280;49073;42.352;23.808;2024-01-11T10:11:32;95113.59;;;1.63;67.50
62978;BME280;49073;42.352;23.808;2024-01-11T10:14:34;95113.84;;;1.99;66.81
62978;BME280;49073;42.352;23.808;2024-01-11T10:17:44;95101.75;;;2.17;65.52
62978;BME280;49073;42.352;23.808;2024-01-11T10:20:48;95097.84;;;1.82;65.51
62978;BME280;49073;42.352;23.808;2024-01-11T10:23:49;95085.03;;;2.27;66.20
62978;BME280;49073;42.352;23.808;2024-01-11T10:27:00;95086.09;;;2.26;64.29
62978;BME280;49073;42.352;23.808;2024-01-11T10:30:04;95082.31;;;2.32;64.27
62978;BME280;49073;42.352;23.808;2024-01-11T10:33:07;95075.34;;;2.70;64.43
62978;BME280;49073;42.352;23.808;2024-01-11T10:36:08;95073.66;;;2.60;62.92
62978;BME280;49073;42.352;23.808;2024-01-11T10:39:10;95063.31;;;2.64;63.09
62978;BME280;49073;42.352;23.808;2024-01-11T10:42:12;95064.13;;;2.64;62.24
62978;BME280;49073;42.352;23.808;2024-01-11T10:45:19;95062.03;;;2.89;62.10
62978;BME280;49073;42.352;23.808;2024-01-11T10:48:21;95054.25;;;3.12;60.61
62978;BME280;49073;42.352;23.808;2024-01-11T10:51:22;95044.91;;;3.42;61.33
62978;BME280;49073;42.352;23.808;2024-01-11T10:54:24;95040.16;;;3.30;60.46
62978;BME280;49073;42.352;23.808;2024-01-11T10:57:27;95033.03;;;3.31;62.11
62978;BME280;49073;42.352;23.808;2024-01-11T11:00:29;95034.97;;;3.62;61.21
62978;BME280;49073;42.352;23.808;2024-01-11T11:03:33;95018.03;;;3.77;58.44
62978;BME280;49073;42.352;23.808;2024-01-11T11:06:34;95018.31;;;3.53;59.83
62978;BME280;49073;42.352;23.808;2024-01-11T11:09:37;95018.16;;;3.72;58.07
62978;BME280;49073;42.352;23.808;2024-01-11T11:12:38;95014.50;;;3.22;54.86
62978;BME280;49073;42.352;23.808;2024-01-11T11:15:45;94997.59;;;3.37;54.49
62978;BME280;49073;42.352;23.808;2024-01-11T11:18:45;94994.19;;;3.59;54.72
62978;BME280;49073;42.352;23.808;2024-01-11T11:21:47;94994.72;;;3.25;55.32
62978;BME280;49073;42.352;23.808;2024-01-11T11:25:02;94983.78;;;2.95;57.02
62978;BME280;49073;42.352;23.808;2024-01-11T11:28:03;94980.94;;;2.91;57.30
62978;BME280;49073;42.352;23.808;2024-01-11T11:31:04;94975.06;;;2.94;58.36
62978;BME280;49073;42.352;23.808;2024-01-11T11:34:06;94971.22;;;2.78;58.18
62978;BME280;49073;42.352;23.808;2024-01-11T11:37:06;94962.63;;;2.86;58.76
62978;BME280;49073;42.352;23.808;2024-01-11T11:40:10;94957.78;;;2.79;59.48
62978;BME280;49073;42.352;23.808;2024-01-11T11:43:11;94951.19;;;2.54;59.47
62978;BME280;49073;42.352;23.808;2024-01-11T11:46:12;94947.31;;;2.37;59.72
62978;BME280;49073;42.352;23.808;2024-01-11T11:49:12;94949.25;;;2.45;60.37
62978;BME280;49073;42.352;23.808;2024-01-11T11:52:15;94930.75;;;2.23;60.69
62978;BME280;49073;42.352;23.808;2024-01-11T11:55:17;94945.06;;;2.16;61.33
62978;BME280;49073;42.352;23.808;2024-01-11T11:58:18;94933.97;;;1.92;62.20
62978;BME280;49073;42.352;23.808;2024-01-11T12:01:19;94928.63;;;2.11;63.22
62978;BME280;49073;42.352;23.808;2024-01-11T12:04:20;94929.19;;;1.94;60.51
62978;BME280;49073;42.352;23.808;2024-01-11T12:07:21;94918.00;;;1.88;60.74
62978;BME280;49073;42.352;23.808;2024-01-11T12:10:23;94916.91;;;1.89;61.69
62978;BME280;49073;42.352;23.808;2024-01-11T12:13:25;94929.09;;;1.99;62.34
62978;BME280;49073;42.352;23.808;2024-01-11T12:16:25;94917.22;;;1.87;61.99
62978;BME280;49073;42.352;23.808;2024-01-11T12:19:28;94910.31;;;1.92;61.44
62978;BME280;49073;42.352;23.808;2024-01-11T12:22:28;94902.72;;;1.90;61.83
62978;BME280;49073;42.352;23.808;2024-01-11T12:25:30;94899.91;;;1.86;61.00
62978;BME280;49073;42.352;23.808;2024-01-11T12:28:31;94898.75;;;2.07;60.93
62978;BME280;49073;42.352;23.808;2024-01-11T12:31:33;94899.13;;;2.14;60.44
62978;BME280;49073;42.352;23.808;2024-01-11T12:34:34;94899.31;;;1.89;59.83
62978;BME280;49073;42.352;23.808;2024-01-11T12:37:35;94893.44;;;1.65;60.55
62978;BME280;49073;42.352;23.808;2024-01-11T12:40:36;94891.41;;;1.62;61.56
62978;BME280;49073;42.352;23.808;2024-01-11T12:43:40;94894.56;;;1.44;63.25
62978;BME280;49073;42.352;23.808;2024-01-11T12:46:41;94893.31;;;1.42;63.81
62978;BME280;49073;42.352;23.808;2024-01-11T12:49:43;94897.63;;;1.52;62.99
62978;BME280;49073;42.352;23.808;2024-01-11T12:52:46;94898.16;;;1.35;63.24
62978;BME280;49073;42.352;23.808;2024-01-11T12:55:47;94890.19;;;1.40;63.73
62978;BME280;49073;42.352;23.808;2024-01-11T12:58:48;94879.31;;;1.47;63.96
62978;BME280;49073;42.352;23.808;2024-01-11T13:01:49;94872.41;;;1.37;64.63
62978;BME280;49073;42.352;23.808;2024-01-11T13:04:50;94869.47;;;1.38;65.04
62978;BME280;49073;42.352;23.808;2024-01-11T13:07:51;94871.22;;;1.29;64.53
62978;BME280;49073;42.352;23.808;2024-01-11T13:10:51;94862.75;;;1.32;65.36
62978;BME280;49073;42.352;23.808;2024-01-11T13:13:52;94863.56;;;1.33;65.48
62978;BME280;49073;42.352;23.808;2024-01-11T13:16:52;94858.69;;;1.40;64.92
62978;BME280;49073;42.352;23.808;2024-01-11T13:19:53;94859.09;;;1.47;65.26
62978;BME280;49073;42.352;23.808;2024-01-11T13:23:12;94848.47;;;1.38;64.26
62978;BME280;49073;42.352;23.808;2024-01-11T13:26:16;94849.34;;;1.34;64.85
62978;BME280;49073;42.352;23.808;2024-01-11T13:29:17;94841.56;;;1.28;65.08
62978;BME280;49073;42.352;23.808;2024-01-11T13:45:48;94823.09;;;1.34;65.20
62978;BME280;49073;42.352;23.808;2024-01-11T13:48:49;94828.75;;;1.41;64.57
62978;BME280;49073;42.352;23.808;2024-01-11T13:51:50;94819.81;;;1.42;64.12
62978;BME280;49073;42.352;23.808;2024-01-11T13:54:50;94818.63;;;1.34;64.53
62978;BME280;49073;42.352;23.808;2024-01-11T13:57:51;94823.78;;;1.39;63.91
62978;BME280;49073;42.352;23.808;2024-01-11T14:00:52;94820.22;;;1.16;64.41
62978;BME280;49073;42.352;23.808;2024-01-11T14:03:53;94805.94;;;1.08;64.83
62978;BME280;49073;42.352;23.808;2024-01-11T14:06:54;94806.22;;;1.07;64.63
62978;BME280;49073;42.352;23.808;2024-01-11T14:09:54;94812.94;;;0.99;65.04
62978;BME280;49073;42.352;23.808;2024-01-11T14:12:55;94812.22;;;0.93;65.22
62978;BME280;49073;42.352;23.808;2024-01-11T14:15:55;94805.72;;;0.91;64.91
62978;BME280;49073;42.352;23.808;2024-01-11T14:18:56;94806.00;;;0.89;65.47
62978;BME280;49073;42.352;23.808;2024-01-11T14:21:57;94798.97;;;0.84;65.35
62978;BME280;49073;42.352;23.808;2024-01-11T14:24:57;94800.25;;;0.87;64.91
62978;BME280;49073;42.352;23.808;2024-01-11T14:27:58;94788.47;;;0.84;64.96
62978;BME280;49073;42.352;23.808;2024-01-11T14:31:00;94794.88;;;0.78;65.17
62978;BME280;49073;42.352;23.808;2024-01-11T14:34:00;94778.47;;;0.72;65.11
62978;BME280;49073;42.352;23.808;2024-01-11T14:37:01;94784.28;;;0.69;65.06
62978;BME280;49073;42.352;23.808;2024-01-11T14:40:02;94778.16;;;0.60;65.38
62978;BME280;49073;42.352;23.808;2024-01-11T14:43:03;94775.66;;;0.50;65.80
62978;BME280;49073;42.352;23.808;2024-01-11T14:46:04;94777.22;;;0.51;65.41
62978;BME280;49073;42.352;23.808;2024-01-11T14:49:05;94774.25;;;0.38;66.35
62978;BME280;49073;42.352;23.808;2024-01-11T14:52:08;94769.81;;;0.39;66.82
62978;BME280;49073;42.352;23.808;2024-01-11T14:55:09;94765.13;;;0.36;66.94
62978;BME280;49073;42.352;23.808;2024-01-11T14:58:09;94768.94;;;0.24;67.17
62978;BME280;49073;42.352;23.808;2024-01-11T15:01:10;94768.25;;;0.19;67.85
62978;BME280;49073;42.352;23.808;2024-01-11T15:04:11;94760.97;;;0.16;68.11
62978;BME280;49073;42.352;23.808;2024-01-11T15:07:11;94759.56;;;0.04;68.95
62978;BME280;49073;42.352;23.808;2024-01-11T15:10:13;94755.38;;;0.03;69.05
62978;BME280;49073;42.352;23.808;2024-01-11T15:13:13;94762.03;;;-0.05;69.96
62978;BME280;49073;42.352;23.808;2024-01-11T15:16:14;94752.59;;;-0.06;69.54
62978;BME280;49073;42.352;23.808;2024-01-11T15:19:15;94753.94;;;-0.08;70.01
62978;BME280;49073;42.352;23.808;2024-01-11T15:22:15;94755.00;;;-0.09;70.49
62978;BME280;49073;42.352;23.808;2024-01-11T15:25:16;94755.88;;;-0.14;70.62
62978;BME280;49073;42.352;23.808;2024-01-11T15:28:18;94763.66;;;-0.09;69.89
62978;BME280;49073;42.352;23.808;2024-01-11T15:31:19;94755.31;;;-0.11;69.89
62978;BME280;49073;42.352;23.808;2024-01-11T15:34:19;94753.25;;;-0.14;70.29
62978;BME280;49073;42.352;23.808;2024-01-11T15:37:20;94753.50;;;-0.16;70.82
62978;BME280;49073;42.352;23.808;2024-01-11T15:40:23;94766.59;;;-0.16;70.54
62978;BME280;49073;42.352;23.808;2024-01-11T15:43:24;94763.50;;;-0.18;71.01
62978;BME280;49073;42.352;23.808;2024-01-11T15:46:24;94764.06;;;-0.21;70.63
62978;BME280;49073;42.352;23.808;2024-01-11T15:49:26;94763.28;;;-0.21;70.94
62978;BME280;49073;42.352;23.808;2024-01-11T15:52:27;94773.53;;;-0.25;71.16
62978;BME280;49073;42.352;23.808;2024-01-11T15:55:27;94768.81;;;-0.23;71.15
62978;BME280;49073;42.352;23.808;2024-01-11T15:58:29;94768.53;;;-0.21;70.99
62978;BME280;49073;42.352;23.808;2024-01-11T16:01:29;94777.22;;;-0.26;71.38
62978;BME280;49073;42.352;23.808;2024-01-11T16:04:30;94779.06;;;-0.26;71.24
62978;BME280;49073;42.352;23.808;2024-01-11T16:07:30;94769.38;;;-0.26;71.39
62978;BME280;49073;42.352;23.808;2024-01-11T16:10:31;94759.72;;;-0.31;71.80
62978;BME280;49073;42.352;23.808;2024-01-11T16:13:32;94759.94;;;-0.27;72.10
62978;BME280;49073;42.352;23.808;2024-01-11T16:16:33;94749.25;;;-0.31;71.86
62978;BME280;49073;42.352;23.808;2024-01-11T16:19:33;94753.00;;;-0.37;72.38